Sunnyvale, Texas
Current Conditions -  °F | °C
As of 2:55 AM on Friday 24 Oct 2014 (Local Time) from KHQZ Reporting Station
Clear Clear  
Wind Chill: 58°   Ceiling: Unl
Heat Index: 58°   Visibility: 10mi
Dew Point: 55°   Wind: 3mph
Humidity: 89%   Direction: 150°SSE
Pressure: 30.12"   Gusts: NA
Location:  32.8°N, 96.56°W
Report Text: KHQZ 240755Z AUTO 15003KT 10SM CLR 14/13 A3012 RMK AO1 T01430125
Loading
Personal Weather Stations






























Interactive Weather Map
Tropical Storm Tracking
New forecast layout! Learn more

10-Day Weather Forecast

Advertisements
Track Severe Weather on mobile